createdAt,value
2019-03-20T00:00:54.157Z,3.71
2019-03-20T00:03:23.881Z,3.63
2019-03-20T00:05:53.507Z,3.56
2019-03-20T00:08:23.238Z,3.53
2019-03-20T00:10:53.075Z,3.37
2019-03-20T00:13:22.702Z,3.20
2019-03-20T00:15:52.479Z,3.20
2019-03-20T00:18:22.172Z,3.04
2019-03-20T00:20:51.934Z,3.06
2019-03-20T00:23:21.722Z,2.97
2019-03-20T00:25:51.357Z,3.04
2019-03-20T00:28:21.088Z,3.25
2019-03-20T00:30:50.811Z,3.26
2019-03-20T00:33:21.879Z,3.23
2019-03-20T00:35:51.708Z,3.13
2019-03-20T00:38:21.439Z,3.13
2019-03-20T00:40:51.063Z,3.28
2019-03-20T00:43:20.707Z,3.44
2019-03-20T00:45:50.425Z,3.55
2019-03-20T00:48:19.946Z,3.73
2019-03-20T00:50:49.998Z,3.70
2019-03-20T00:53:19.716Z,3.75
2019-03-20T00:55:49.446Z,3.77
2019-03-20T00:58:19.273Z,3.88
2019-03-20T01:00:49.211Z,3.93
2019-03-20T01:03:18.837Z,3.94
2019-03-20T01:05:48.664Z,3.93
2019-03-20T01:08:18.408Z,3.86
2019-03-20T01:10:48.234Z,3.57
2019-03-20T01:13:18.073Z,3.53
2019-03-20T01:15:47.901Z,3.43
2019-03-20T01:18:17.632Z,3.39
2019-03-20T01:20:47.353Z,3.30
2019-03-20T01:23:17.194Z,3.24
2019-03-20T01:25:46.923Z,3.26
2019-03-20T01:28:16.611Z,3.24
2019-03-20T01:30:46.385Z,3.20
2019-03-20T01:33:16.831Z,3.23
2019-03-20T01:35:46.546Z,3.23
2019-03-20T01:38:16.192Z,3.14
2019-03-20T01:40:45.922Z,2.95
2019-03-20T01:43:15.746Z,2.85
2019-03-20T01:45:45.488Z,2.70
2019-03-20T01:48:15.103Z,2.74
2019-03-20T01:50:44.834Z,2.51
2019-03-20T01:53:14.470Z,2.42
2019-03-20T01:55:44.090Z,2.46
2019-03-20T01:58:13.730Z,2.46
2019-03-20T02:00:43.347Z,2.47
2019-03-20T02:03:12.977Z,2.38
2019-03-20T02:05:43.728Z,2.30
2019-03-20T02:08:13.360Z,2.30
2019-03-20T02:10:43.083Z,2.29
2019-03-20T02:13:12.814Z,2.21
2019-03-20T02:15:42.551Z,2.15
2019-03-20T02:18:12.286Z,2.17
2019-03-20T02:20:42.044Z,2.05
2019-03-20T02:23:11.741Z,2.00
2019-03-20T02:25:41.504Z,1.95
2019-03-20T02:28:11.406Z,1.92
2019-03-20T02:30:41.032Z,1.91
2019-03-20T02:33:10.801Z,1.88
2019-03-20T02:35:51.420Z,1.86
2019-03-20T02:38:12.899Z,1.84
2019-03-20T02:40:42.514Z,1.75
2019-03-20T02:43:12.343Z,1.60
2019-03-20T02:45:42.078Z,1.58
2019-03-20T02:48:11.812Z,1.53
2019-03-20T02:50:41.538Z,1.43
2019-03-20T02:53:11.275Z,1.45
2019-03-20T02:55:40.985Z,1.42
2019-03-20T02:58:10.585Z,1.43
2019-03-20T03:00:40.360Z,1.37
2019-03-20T03:03:09.980Z,1.25
2019-03-20T03:05:39.713Z,1.11
2019-03-20T03:08:09.543Z,1.03
2019-03-20T03:10:39.995Z,0.93
2019-03-20T03:13:09.236Z,0.92
2019-03-20T03:15:38.837Z,1.01
2019-03-20T03:18:08.467Z,1.04
2019-03-20T03:20:38.103Z,0.95
2019-03-20T03:23:07.821Z,0.80
2019-03-20T03:25:37.455Z,0.85
2019-03-20T03:28:07.078Z,0.83
2019-03-20T03:30:36.810Z,0.78
2019-03-20T03:33:06.432Z,0.77
2019-03-20T03:35:36.370Z,0.78
2019-03-20T03:38:07.132Z,0.84
2019-03-20T03:40:36.950Z,0.87
2019-03-20T03:43:06.480Z,1.05
2019-03-20T03:45:36.207Z,1.01
2019-03-20T03:48:05.946Z,1.00
2019-03-20T03:50:35.628Z,1.11
2019-03-20T03:53:05.419Z,1.19
2019-03-20T03:55:35.031Z,1.03
2019-03-20T03:58:04.760Z,0.92
2019-03-20T04:00:34.706Z,1.05
2019-03-20T04:03:04.426Z,1.13
2019-03-20T04:05:35.283Z,1.33
2019-03-20T04:08:04.908Z,1.43
2019-03-20T04:10:34.540Z,1.36
2019-03-20T04:13:04.291Z,1.42
2019-03-20T04:15:36.440Z,1.55
2019-03-20T04:18:06.499Z,1.61
2019-03-20T04:20:36.020Z,1.47
2019-03-20T04:23:05.742Z,1.41
2019-03-20T04:25:37.113Z,1.39
2019-03-20T04:28:06.860Z,1.45
2019-03-20T04:30:36.566Z,1.51
2019-03-20T04:33:06.304Z,1.50
2019-03-20T04:35:35.941Z,1.50
2019-03-20T04:38:05.664Z,1.46
2019-03-20T04:40:35.396Z,1.51
2019-03-20T04:43:05.126Z,1.55
2019-03-20T04:45:34.743Z,1.55
2019-03-20T04:48:06.019Z,1.59
2019-03-20T04:50:35.876Z,1.52
2019-03-20T04:53:05.708Z,1.42
2019-03-20T04:55:35.427Z,1.49
2019-03-20T04:58:06.637Z,1.56
2019-03-20T05:00:36.506Z,1.56
2019-03-20T05:03:06.143Z,1.73
2019-03-20T05:05:35.751Z,1.71
2019-03-20T05:08:05.593Z,1.37
2019-03-20T05:10:35.334Z,1.37
2019-03-20T05:13:05.167Z,1.32
2019-03-20T05:15:34.887Z,1.27
2019-03-20T05:18:04.613Z,1.36
2019-03-20T05:20:36.496Z,1.42
2019-03-20T05:23:08.455Z,1.52
2019-03-20T05:25:37.591Z,1.49
2019-03-20T05:28:07.154Z,1.48
2019-03-20T05:30:36.949Z,1.59
2019-03-20T05:33:06.629Z,1.56
2019-03-20T05:35:36.407Z,1.59
2019-03-20T05:38:06.143Z,1.76
2019-03-20T05:40:35.875Z,1.84
2019-03-20T05:43:06.620Z,2.00
2019-03-20T05:45:36.351Z,1.84
2019-03-20T05:48:06.078Z,1.65
2019-03-20T05:50:36.214Z,1.68
2019-03-20T05:53:06.048Z,1.73
2019-03-20T05:55:35.777Z,1.94
2019-03-20T05:58:05.517Z,1.92
2019-03-20T06:00:36.274Z,1.80
2019-03-20T06:03:06.507Z,1.84
2019-03-20T06:05:37.111Z,2.05
2019-03-20T06:08:06.998Z,2.27
2019-03-20T06:10:37.778Z,2.15
2019-03-20T06:13:07.477Z,2.54
2019-03-20T06:15:37.200Z,2.70
2019-03-20T06:18:06.830Z,2.58
2019-03-20T06:20:36.563Z,2.47
2019-03-20T06:23:06.295Z,2.67
2019-03-20T06:25:36.120Z,2.63
2019-03-20T06:28:05.846Z,2.79
2019-03-20T06:30:35.687Z,2.85
2019-03-20T06:33:05.209Z,2.98
2019-03-20T06:35:34.937Z,3.08
2019-03-20T06:38:04.670Z,3.34
2019-03-20T06:40:35.625Z,3.61
2019-03-20T06:43:06.275Z,3.70
2019-03-20T06:45:36.015Z,3.73
2019-03-20T06:48:05.529Z,3.88
2019-03-20T06:50:35.166Z,3.83
2019-03-20T06:53:04.689Z,3.70
2019-03-20T06:55:34.530Z,3.70
2019-03-20T06:58:04.248Z,3.71
2019-03-20T07:00:43.189Z,3.67
2019-03-20T07:03:28.164Z,3.82
2019-03-20T07:06:31.539Z,3.91
2019-03-20T07:09:25.603Z,4.13
2019-03-20T07:11:55.231Z,4.19
2019-03-20T07:14:24.876Z,4.57
2019-03-20T07:16:54.484Z,4.52
2019-03-20T07:19:24.508Z,4.16
2019-03-20T07:21:54.477Z,4.37
2019-03-20T07:24:24.200Z,4.25
2019-03-20T07:26:54.022Z,4.22
2019-03-20T07:29:23.761Z,4.58
2019-03-20T07:31:53.370Z,4.53
2019-03-20T07:34:23.939Z,4.94
2019-03-20T07:36:52.911Z,5.16
2019-03-20T07:39:22.565Z,5.15
2019-03-20T07:41:52.301Z,5.45
2019-03-20T07:44:21.931Z,5.64
2019-03-20T07:46:51.454Z,6.15
2019-03-20T07:49:21.082Z,6.54
2019-03-20T07:51:50.817Z,6.90
2019-03-20T07:54:20.539Z,6.91
2019-03-20T07:56:50.273Z,7.22
2019-03-20T07:59:20.205Z,7.46
2019-03-20T08:01:51.479Z,7.52
2019-03-20T08:04:21.321Z,7.70
2019-03-20T08:06:50.935Z,8.07
2019-03-20T08:09:20.742Z,8.59
2019-03-20T08:11:50.501Z,8.35
2019-03-20T08:14:19.973Z,9.00
2019-03-20T08:16:49.854Z,9.83
2019-03-20T08:19:19.479Z,10.09
2019-03-20T08:21:49.224Z,12.17
2019-03-20T08:24:19.037Z,13.32
2019-03-20T08:26:48.680Z,15.70
2019-03-20T08:29:18.294Z,17.58
2019-03-20T08:31:48.138Z,18.38
2019-03-20T08:34:17.960Z,18.01
2019-03-20T08:36:47.709Z,17.92
2019-03-20T08:39:17.539Z,18.07
2019-03-20T08:41:47.154Z,18.61
2019-03-20T08:44:16.713Z,20.15
2019-03-20T08:46:46.623Z,20.46
2019-03-20T08:49:16.374Z,20.60
2019-03-20T08:51:45.969Z,21.08
2019-03-20T08:54:15.606Z,22.25
2019-03-20T08:56:46.357Z,22.51
2019-03-20T08:59:18.053Z,22.80
2019-03-20T09:01:47.246Z,24.28
2019-03-20T09:04:16.878Z,25.07
2019-03-20T09:06:46.615Z,26.22
2019-03-20T09:09:16.367Z,26.37
2019-03-20T09:11:46.064Z,26.80
2019-03-20T09:14:15.789Z,27.76
2019-03-20T09:16:45.527Z,27.89
2019-03-20T09:19:15.265Z,27.59
2019-03-20T09:21:44.988Z,27.41
2019-03-20T09:24:14.713Z,27.30
2019-03-20T09:26:44.446Z,28.04
2019-03-20T09:29:18.501Z,29.77
2019-03-20T09:31:45.516Z,29.03
2019-03-20T09:34:15.277Z,28.74
2019-03-20T09:36:44.900Z,28.28
2019-03-20T09:39:14.744Z,28.33
2019-03-20T09:41:44.462Z,29.30
2019-03-20T09:44:14.198Z,30.44
2019-03-20T09:46:43.739Z,31.57
2019-03-20T09:49:13.489Z,30.06
2019-03-20T09:51:43.181Z,29.13
2019-03-20T09:54:12.740Z,29.43
2019-03-20T09:56:42.349Z,29.05
2019-03-20T09:59:12.170Z,30.74
2019-03-20T10:01:41.816Z,29.04
2019-03-20T10:04:11.543Z,27.17
2019-03-20T10:06:41.313Z,27.48
2019-03-20T10:09:10.997Z,27.90
2019-03-20T10:11:40.615Z,27.18
2019-03-20T10:14:10.343Z,27.57
2019-03-20T10:16:39.883Z,28.22
2019-03-20T10:19:09.612Z,27.83
2019-03-20T10:21:39.534Z,28.21
2019-03-20T10:24:09.873Z,29.28
2019-03-20T10:26:39.508Z,28.14
2019-03-20T10:29:09.346Z,29.01
2019-03-20T10:31:38.974Z,28.78
2019-03-20T10:34:08.735Z,28.66
2019-03-20T10:36:38.426Z,29.33
2019-03-20T10:39:08.187Z,28.87
2019-03-20T10:41:37.994Z,29.16
2019-03-20T10:44:07.614Z,28.93
2019-03-20T10:46:37.347Z,28.97
2019-03-20T10:49:06.976Z,28.49
2019-03-20T10:51:36.610Z,29.92
2019-03-20T10:54:06.343Z,30.99
2019-03-20T10:56:36.068Z,30.77
2019-03-20T10:59:05.791Z,31.42
2019-03-20T11:01:42.440Z,30.84
2019-03-20T11:04:07.000Z,31.78
2019-03-20T11:06:36.826Z,31.78
2019-03-20T11:09:17.692Z,32.25
2019-03-20T11:11:39.259Z,31.07
2019-03-20T11:14:08.989Z,30.76
2019-03-20T11:16:38.736Z,30.73
2019-03-20T11:19:08.556Z,30.82
2019-03-20T11:21:38.385Z,29.82
2019-03-20T11:24:08.213Z,29.45
2019-03-20T11:26:39.578Z,29.69
2019-03-20T11:29:09.304Z,28.85
2019-03-20T11:31:38.938Z,29.31
2019-03-20T11:34:08.796Z,29.70
2019-03-20T11:36:38.399Z,30.15
2019-03-20T11:39:09.351Z,28.60
2019-03-20T11:41:39.089Z,28.40
2019-03-20T11:44:08.835Z,28.73
2019-03-20T11:46:38.650Z,29.51
2019-03-20T11:49:08.388Z,29.78
2019-03-20T11:51:38.011Z,29.81
2019-03-20T11:54:07.738Z,30.65
2019-03-20T11:56:37.469Z,30.36
2019-03-20T11:59:07.206Z,29.77
2019-03-20T12:01:37.960Z,29.07
2019-03-20T12:04:07.573Z,28.63
2019-03-20T12:06:37.308Z,28.09
2019-03-20T12:09:08.798Z,28.17
2019-03-20T12:11:45.733Z,29.63
2019-03-20T12:14:10.996Z,29.67
2019-03-20T12:16:40.821Z,29.89
2019-03-20T12:19:10.559Z,29.57
2019-03-20T12:21:40.434Z,29.79
2019-03-20T12:24:10.253Z,27.94
2019-03-20T12:26:39.983Z,28.14
2019-03-20T12:29:09.685Z,27.76
2019-03-20T12:31:39.262Z,28.33
2019-03-20T12:34:08.800Z,29.18
2019-03-20T12:36:38.575Z,29.00
2019-03-20T12:39:08.923Z,28.62
2019-03-20T12:41:38.748Z,28.63
2019-03-20T12:44:08.586Z,28.22
2019-03-20T12:46:41.661Z,27.43
2019-03-20T12:49:09.800Z,27.78
2019-03-20T12:51:39.609Z,28.32
2019-03-20T12:54:09.335Z,28.42
2019-03-20T12:56:39.401Z,28.02
2019-03-20T12:59:09.211Z,28.54
2019-03-20T13:01:40.191Z,29.07
2019-03-20T13:04:10.192Z,29.05
2019-03-20T13:06:40.031Z,29.19
2019-03-20T13:09:09.820Z,29.29
2019-03-20T13:11:39.501Z,27.91
2019-03-20T13:14:09.066Z,27.28
2019-03-20T13:16:38.963Z,27.12
2019-03-20T13:19:08.679Z,26.95
2019-03-20T13:21:38.548Z,26.72
2019-03-20T13:24:08.312Z,26.76
2019-03-20T13:26:38.189Z,26.77
2019-03-20T13:29:09.657Z,26.80
2019-03-20T13:31:39.489Z,25.89
2019-03-20T13:34:09.113Z,25.73
2019-03-20T13:36:38.838Z,26.32
2019-03-20T13:39:08.996Z,26.11
2019-03-20T13:41:38.129Z,26.20
2019-03-20T13:44:08.565Z,25.87
2019-03-20T13:46:39.444Z,25.63
2019-03-20T13:49:09.236Z,25.36
2019-03-20T13:51:39.196Z,25.18
2019-03-20T13:54:09.000Z,25.19
2019-03-20T13:56:38.833Z,25.21
2019-03-20T13:59:08.582Z,24.77
2019-03-20T14:01:38.470Z,24.60
2019-03-20T14:04:08.432Z,24.46
2019-03-20T14:06:38.069Z,24.37
2019-03-20T14:09:08.100Z,24.12
2019-03-20T14:11:38.045Z,23.85
2019-03-20T14:14:07.758Z,23.24
2019-03-20T14:16:37.489Z,22.75
2019-03-20T14:19:07.230Z,22.58
2019-03-20T14:21:37.058Z,22.16
2019-03-20T14:24:06.793Z,22.13
2019-03-20T14:26:36.323Z,21.83
2019-03-20T14:29:05.829Z,21.63
2019-03-20T14:31:35.673Z,21.40
2019-03-20T14:34:05.309Z,21.36
2019-03-20T14:36:35.051Z,21.13
2019-03-20T14:39:06.822Z,20.29
2019-03-20T14:41:36.650Z,19.67
2019-03-20T14:44:06.381Z,19.42
2019-03-20T14:46:36.207Z,18.82
2019-03-20T14:49:05.929Z,17.79
2019-03-20T14:51:35.662Z,16.94
2019-03-20T14:54:05.394Z,16.31
2019-03-20T14:56:34.948Z,15.93
2019-03-20T14:59:04.870Z,16.14
2019-03-20T15:01:34.575Z,16.12
2019-03-20T15:04:04.327Z,16.01
2019-03-20T15:06:34.150Z,16.02
2019-03-20T15:09:04.191Z,15.84
2019-03-20T15:11:34.911Z,15.41
2019-03-20T15:14:03.874Z,14.74
2019-03-20T15:16:33.463Z,14.38
2019-03-20T15:19:03.274Z,14.08
2019-03-20T15:21:33.045Z,13.83
2019-03-20T15:24:02.883Z,13.68
2019-03-20T15:26:32.592Z,13.46
2019-03-20T15:29:03.764Z,13.38
2019-03-20T15:31:33.390Z,13.33
2019-03-20T15:34:03.332Z,13.09
2019-03-20T15:36:33.150Z,13.04
2019-03-20T15:39:04.321Z,13.22
2019-03-20T15:41:35.495Z,13.33
2019-03-20T15:44:05.212Z,13.44
2019-03-20T15:46:34.910Z,13.58
2019-03-20T15:49:04.672Z,13.60
2019-03-20T15:51:34.402Z,13.56
2019-03-20T15:54:04.143Z,13.55
2019-03-20T15:56:33.859Z,13.53
2019-03-20T15:59:03.607Z,13.43
2019-03-20T16:01:33.424Z,13.13
2019-03-20T16:04:03.635Z,13.01
2019-03-20T16:06:33.306Z,12.82
2019-03-20T16:09:02.929Z,12.66
2019-03-20T16:11:33.017Z,12.52
2019-03-20T16:14:02.687Z,12.35
2019-03-20T16:16:32.422Z,12.27
2019-03-20T16:19:02.152Z,12.09
2019-03-20T16:21:31.997Z,12.09
2019-03-20T16:24:01.563Z,12.06
2019-03-20T16:26:31.445Z,11.96
2019-03-20T16:29:01.177Z,11.90
2019-03-20T16:31:31.204Z,11.76
2019-03-20T16:34:00.912Z,11.70
2019-03-20T16:36:30.675Z,11.64
2019-03-20T16:39:00.400Z,11.53
2019-03-20T16:41:31.355Z,11.53
2019-03-20T16:44:01.187Z,11.59
2019-03-20T16:46:30.916Z,11.53
2019-03-20T16:49:01.219Z,11.51
2019-03-20T16:51:30.933Z,11.49
2019-03-20T16:54:00.726Z,11.30
2019-03-20T16:56:30.475Z,11.29
2019-03-20T16:59:00.088Z,11.27
2019-03-20T17:01:29.830Z,11.20
2019-03-20T17:03:59.450Z,11.08
2019-03-20T17:06:29.026Z,10.93
2019-03-20T17:08:58.906Z,10.86
2019-03-20T17:11:38.107Z,10.83
2019-03-20T17:14:01.088Z,10.79
2019-03-20T17:16:30.749Z,10.71
2019-03-20T17:19:00.475Z,10.64
2019-03-20T17:21:31.257Z,10.61
2019-03-20T17:24:00.957Z,10.60
2019-03-20T17:26:30.701Z,10.39
2019-03-20T17:29:08.656Z,10.32
2019-03-20T17:31:32.016Z,10.17
2019-03-20T17:34:01.971Z,10.07
2019-03-20T17:36:31.662Z,9.90
2019-03-20T17:39:01.314Z,9.85
2019-03-20T17:41:36.563Z,9.77
2019-03-20T17:44:04.536Z,9.69
2019-03-20T17:46:34.375Z,9.70
2019-03-20T17:49:04.099Z,9.69
2019-03-20T17:51:34.846Z,9.67
2019-03-20T17:54:04.477Z,9.66
2019-03-20T17:56:34.101Z,9.82
2019-03-20T17:59:05.472Z,9.94
2019-03-20T18:01:35.198Z,9.95
2019-03-20T18:04:04.925Z,10.00
2019-03-20T18:06:34.682Z,10.04
2019-03-20T18:09:06.139Z,10.04
2019-03-20T18:11:35.964Z,9.97
2019-03-20T18:14:05.597Z,9.80
2019-03-20T18:16:35.318Z,9.82
2019-03-20T18:19:05.063Z,9.84
2019-03-20T18:21:34.780Z,9.85
2019-03-20T18:24:04.716Z,9.87
2019-03-20T18:26:34.473Z,9.83
2019-03-20T18:29:04.180Z,9.70
2019-03-20T18:31:33.913Z,9.65
2019-03-20T18:34:03.891Z,9.41
2019-03-20T18:36:33.676Z,9.33
2019-03-20T18:39:03.718Z,9.26
2019-03-20T18:41:34.053Z,9.23
2019-03-20T18:44:03.784Z,9.20
2019-03-20T18:46:33.417Z,9.03
2019-03-20T18:49:02.976Z,8.87
2019-03-20T18:51:32.673Z,8.73
2019-03-20T18:54:02.328Z,8.69
2019-03-20T18:56:32.025Z,8.65
2019-03-20T18:59:02.825Z,8.65
2019-03-20T19:01:32.718Z,8.63
2019-03-20T19:04:03.425Z,8.64
2019-03-20T19:06:33.611Z,8.63
2019-03-20T19:09:03.460Z,8.51
2019-03-20T19:11:34.886Z,8.49
2019-03-20T19:14:04.744Z,8.49
2019-03-20T19:16:34.495Z,8.55
2019-03-20T19:19:04.108Z,8.52
2019-03-20T19:21:33.792Z,8.54
2019-03-20T19:24:04.474Z,8.57
2019-03-20T19:26:34.680Z,8.57
2019-03-20T19:29:04.300Z,8.43
2019-03-20T19:31:34.037Z,8.31
2019-03-20T19:34:03.912Z,8.24
2019-03-20T19:36:33.442Z,8.14
2019-03-20T19:39:04.542Z,8.07
2019-03-20T19:41:34.412Z,8.06
2019-03-20T19:44:04.369Z,8.01
2019-03-20T19:46:34.020Z,8.02
2019-03-20T19:49:03.942Z,7.95
2019-03-20T19:51:35.730Z,7.91
2019-03-20T19:54:05.373Z,7.91
2019-03-20T19:56:35.067Z,7.89
2019-03-20T19:59:04.688Z,7.91
2019-03-20T20:01:34.423Z,7.85
2019-03-20T20:04:04.249Z,7.87
2019-03-20T20:06:33.862Z,7.88
2019-03-20T20:09:04.070Z,7.93
2019-03-20T20:11:33.669Z,7.90
2019-03-20T20:14:03.144Z,7.89
2019-03-20T20:16:32.683Z,7.93
2019-03-20T20:19:02.261Z,7.91
2019-03-20T20:21:31.948Z,7.84
2019-03-20T20:24:01.446Z,7.79
2019-03-20T20:26:31.087Z,7.81
2019-03-20T20:29:00.751Z,7.73
2019-03-20T20:31:30.481Z,7.70
2019-03-20T20:34:00.194Z,7.75
2019-03-20T20:36:29.752Z,7.65
2019-03-20T20:38:59.455Z,7.79
2019-03-20T20:41:29.051Z,7.71
2019-03-20T20:43:58.768Z,7.72
2019-03-20T20:46:28.448Z,7.73
2019-03-20T20:48:58.138Z,7.71
2019-03-20T20:51:27.822Z,7.65
2019-03-20T20:53:57.428Z,7.69
2019-03-20T20:56:27.041Z,7.69
2019-03-20T20:58:56.676Z,7.65
2019-03-20T21:01:26.393Z,7.71
2019-03-20T21:03:56.138Z,7.63
2019-03-20T21:06:25.772Z,7.59
2019-03-20T21:08:55.393Z,7.65
2019-03-20T21:11:25.093Z,7.60
2019-03-20T21:13:54.963Z,7.55
2019-03-20T21:16:24.796Z,7.56
2019-03-20T21:19:18.590Z,7.53
2019-03-20T21:21:51.454Z,7.48
2019-03-20T21:24:24.158Z,7.40
2019-03-20T21:26:59.619Z,7.41
2019-03-20T21:29:50.822Z,7.37
2019-03-20T21:32:32.375Z,7.34
2019-03-20T21:35:10.934Z,7.37
2019-03-20T21:38:03.064Z,7.37
2019-03-20T21:40:50.995Z,7.36
2019-03-20T21:43:35.660Z,7.28
2019-03-20T21:46:30.607Z,7.42
2019-03-20T21:49:00.171Z,7.43
2019-03-20T21:51:29.917Z,7.54
2019-03-20T21:54:15.085Z,7.42
2019-03-20T21:56:53.808Z,7.28
2019-03-20T21:59:38.067Z,7.25
2019-03-20T22:02:27.431Z,7.21
2019-03-20T22:04:57.059Z,7.16
2019-03-20T22:07:26.787Z,7.14
2019-03-20T22:10:22.191Z,7.12
2019-03-20T22:12:57.650Z,7.08
2019-03-20T22:15:33.213Z,7.03
2019-03-20T22:18:28.611Z,7.03
2019-03-20T22:21:01.520Z,7.08
2019-03-20T22:23:50.874Z,7.04
2019-03-20T22:26:49.445Z,7.04
2019-03-20T22:29:21.936Z,7.04
2019-03-20T22:32:26.869Z,7.09
2019-03-20T22:35:14.686Z,7.12
2019-03-20T22:37:44.417Z,7.21
2019-03-20T22:40:17.168Z,7.22
2019-03-20T22:43:06.887Z,7.23
2019-03-20T22:46:01.066Z,7.20
2019-03-20T22:48:45.523Z,7.17
2019-03-20T22:51:24.162Z,7.05
2019-03-20T22:54:13.618Z,7.02
2019-03-20T22:56:55.305Z,7.00
2019-03-20T22:59:24.934Z,6.99
2019-03-20T23:02:12.670Z,6.98
2019-03-20T23:04:54.882Z,6.96
2019-03-20T23:07:24.405Z,6.97
2019-03-20T23:09:54.139Z,6.95
2019-03-20T23:12:23.969Z,6.91
2019-03-20T23:14:53.666Z,6.83
2019-03-20T23:17:23.422Z,6.74
2019-03-20T23:19:53.159Z,6.69
2019-03-20T23:22:22.788Z,6.73
2019-03-20T23:24:52.560Z,6.69
2019-03-20T23:27:25.121Z,6.80
2019-03-20T23:29:54.631Z,6.72
2019-03-20T23:32:24.261Z,6.61
2019-03-20T23:34:55.013Z,6.56
2019-03-20T23:37:24.638Z,6.53
2019-03-20T23:39:54.420Z,6.50
2019-03-20T23:42:24.109Z,6.55
2019-03-20T23:44:54.850Z,6.43
2019-03-20T23:47:27.759Z,6.38
2019-03-20T23:49:57.488Z,6.48
2019-03-20T23:52:27.111Z,6.50
2019-03-20T23:54:57.044Z,6.51
2019-03-20T23:57:26.780Z,6.38
2019-03-20T23:59:56.564Z,6.28
